createdAt,value
2023-02-11T00:00:15.573Z,-1.89
2023-02-11T00:02:42.395Z,-1.65
2023-02-11T00:05:09.301Z,-1.67
2023-02-11T00:07:36.284Z,-1.64
2023-02-11T00:10:04.386Z,-1.57
2023-02-11T00:12:31.362Z,-1.71
2023-02-11T00:14:57.977Z,-1.80
2023-02-11T00:17:24.573Z,-1.80
2023-02-11T00:19:52.419Z,-1.83
2023-02-11T00:22:19.001Z,-1.83
2023-02-11T00:24:45.744Z,-1.85
2023-02-11T00:27:12.408Z,-2.01
2023-02-11T00:29:39.298Z,-1.91
2023-02-11T00:32:07.169Z,-1.89
2023-02-11T00:34:34.778Z,-1.94
2023-02-11T00:37:01.620Z,-1.94
2023-02-11T00:39:28.475Z,-1.97
2023-02-11T00:41:55.154Z,-2.08
2023-02-11T00:44:21.789Z,-2.10
2023-02-11T00:46:48.392Z,-1.87
2023-02-11T00:49:15.056Z,-1.94
2023-02-11T00:51:41.948Z,-2.02
2023-02-11T00:54:08.621Z,-2.11
2023-02-11T00:56:35.486Z,-2.09
2023-02-11T00:59:02.132Z,-2.12
2023-02-11T01:01:28.771Z,-2.24
2023-02-11T01:03:55.618Z,-2.16
2023-02-11T01:06:22.189Z,-2.23
2023-02-11T01:08:48.780Z,-2.17
2023-02-11T01:11:19.647Z,-2.21
2023-02-11T01:13:47.905Z,-2.24
2023-02-11T01:16:14.933Z,-2.13
2023-02-11T01:18:44.414Z,-2.16
2023-02-11T01:21:12.009Z,-2.20
2023-02-11T01:23:38.705Z,-2.10
2023-02-11T01:26:05.538Z,-2.29
2023-02-11T01:28:32.764Z,-2.33
2023-02-11T01:31:03.359Z,-2.35
2023-02-11T01:33:30.464Z,-2.25
2023-02-11T01:36:01.917Z,-2.28
2023-02-11T01:38:28.820Z,-2.25
2023-02-11T01:41:00.406Z,-2.35
2023-02-11T01:43:31.172Z,-2.42
2023-02-11T01:46:34.139Z,-2.42
2023-02-11T01:49:03.875Z,-2.44
2023-02-11T01:51:39.766Z,-2.49
2023-02-11T01:54:27.874Z,-2.36
2023-02-11T01:57:17.698Z,-2.41
2023-02-11T01:59:59.267Z,-2.36
2023-02-11T02:02:34.501Z,-2.43
2023-02-11T02:05:10.161Z,-2.35
2023-02-11T02:07:52.678Z,-2.40
2023-02-11T02:10:24.431Z,-2.45
2023-02-11T02:12:51.093Z,-2.26
2023-02-11T02:15:30.710Z,-2.35
2023-02-11T02:18:01.969Z,-2.31
2023-02-11T02:20:53.920Z,-2.33
2023-02-11T02:23:32.396Z,-2.05
2023-02-11T02:26:10.744Z,-2.23
2023-02-11T02:29:19.615Z,-2.32
2023-02-11T02:32:03.875Z,-2.44
2023-02-11T02:34:36.332Z,-2.42
2023-02-11T02:37:10.269Z,-2.40
2023-02-11T02:39:37.706Z,-2.41
2023-02-11T02:42:05.707Z,-2.39
2023-02-11T02:44:32.478Z,-2.59
2023-02-11T02:46:59.100Z,-2.55
2023-02-11T02:49:25.713Z,-2.50
2023-02-11T02:52:01.551Z,-2.55
2023-02-11T02:54:49.721Z,-2.40
2023-02-11T02:57:34.676Z,-2.51
2023-02-11T03:00:17.399Z,-2.41
2023-02-11T03:03:05.342Z,-2.52
2023-02-11T03:05:50.230Z,-2.40
2023-02-11T03:08:19.070Z,-2.43
2023-02-11T03:10:49.702Z,-2.44
2023-02-11T03:13:20.933Z,-2.33
2023-02-11T03:15:51.137Z,-2.47
2023-02-11T03:18:24.655Z,-2.51
2023-02-11T03:20:54.437Z,-2.56
2023-02-11T03:23:30.897Z,-2.52
2023-02-11T03:26:09.153Z,-2.60
2023-02-11T03:28:59.335Z,-2.46
2023-02-11T03:32:07.563Z,-2.53
2023-02-11T03:34:54.305Z,-2.59
2023-02-11T03:37:30.856Z,-2.53
2023-02-11T03:40:08.411Z,-2.62
2023-02-11T03:42:52.317Z,-2.61
2023-02-11T03:45:22.073Z,-2.50
2023-02-11T03:48:17.436Z,-2.45
2023-02-11T03:50:47.035Z,-2.45
2023-02-11T03:53:15.358Z,-2.47
2023-02-11T03:55:44.209Z,-2.42
2023-02-11T03:58:11.310Z,-2.47
2023-02-11T04:00:42.313Z,-2.61
2023-02-11T04:03:10.356Z,-2.55
2023-02-11T04:05:37.952Z,-2.44
2023-02-11T04:08:05.411Z,-2.49
2023-02-11T04:10:31.990Z,-2.43
2023-02-11T04:13:00.049Z,-2.46
2023-02-11T04:15:26.739Z,-2.55
2023-02-11T04:17:53.327Z,-2.60
2023-02-11T04:20:20.198Z,-2.63
2023-02-11T04:22:46.798Z,-2.63
2023-02-11T04:25:13.666Z,-2.78
2023-02-11T04:27:40.469Z,-2.77
2023-02-11T04:30:08.908Z,-2.93
2023-02-11T04:32:35.544Z,-2.76
2023-02-11T04:35:03.145Z,-2.88
2023-02-11T04:37:29.881Z,-2.88
2023-02-11T04:39:56.577Z,-2.86
2023-02-11T04:42:24.270Z,-2.75
2023-02-11T04:44:50.840Z,-2.76
2023-02-11T04:47:17.458Z,-2.65
2023-02-11T04:49:44.047Z,-2.56
2023-02-11T04:52:11.012Z,-2.54
2023-02-11T04:54:37.685Z,-2.53
2023-02-11T04:57:04.338Z,-2.59
2023-02-11T04:59:30.931Z,-2.69
2023-02-11T05:01:57.581Z,-2.71
2023-02-11T05:04:24.398Z,-2.76
2023-02-11T05:06:51.107Z,-2.75
2023-02-11T05:09:17.796Z,-2.85
2023-02-11T05:11:44.442Z,-2.92
2023-02-11T05:14:11.091Z,-2.88
2023-02-11T05:16:38.069Z,-3.10
2023-02-11T05:19:04.952Z,-2.94
2023-02-11T05:21:31.616Z,-2.95
2023-02-11T05:23:58.573Z,-3.05
2023-02-11T05:26:25.408Z,-3.10
2023-02-11T05:28:52.229Z,-3.02
2023-02-11T05:31:18.943Z,-2.94
2023-02-11T05:33:45.906Z,-2.92
2023-02-11T05:36:13.505Z,-2.92
2023-02-11T05:38:40.920Z,-2.95
2023-02-11T05:41:07.618Z,-2.91
2023-02-11T05:43:35.456Z,-3.09
2023-02-11T05:46:03.205Z,-3.05
2023-02-11T05:48:30.411Z,-2.99
2023-02-11T05:50:57.045Z,-3.00
2023-02-11T05:53:23.694Z,-2.95
2023-02-11T05:55:50.704Z,-3.01
2023-02-11T05:58:17.468Z,-3.12
2023-02-11T06:00:44.000Z,-2.98
2023-02-11T06:03:10.627Z,-3.02
2023-02-11T06:05:37.319Z,-3.02
2023-02-11T06:08:04.134Z,-3.04
2023-02-11T06:10:30.766Z,-2.99
2023-02-11T06:12:57.475Z,-2.99
2023-02-11T06:15:24.099Z,-2.93
2023-02-11T06:17:50.691Z,-2.95
2023-02-11T06:20:17.387Z,-3.11
2023-02-11T06:22:44.178Z,-3.19
2023-02-11T06:25:11.483Z,-3.09
2023-02-11T06:27:39.004Z,-2.98
2023-02-11T06:30:07.107Z,-3.06
2023-02-11T06:32:49.381Z,-3.16
2023-02-11T06:35:15.978Z,-3.10
2023-02-11T06:37:42.995Z,-3.32
2023-02-11T06:40:11.026Z,-3.29
2023-02-11T06:42:39.163Z,-3.19
2023-02-11T06:45:09.187Z,-3.24
2023-02-11T06:47:35.735Z,-3.22
2023-02-11T06:50:02.416Z,-3.35
2023-02-11T06:52:29.275Z,-3.24
2023-02-11T06:54:55.964Z,-3.28
2023-02-11T06:57:22.567Z,-3.32
2023-02-11T06:59:49.320Z,-3.26
2023-02-11T07:02:16.778Z,-3.20
2023-02-11T07:04:44.589Z,-3.22
2023-02-11T07:07:11.289Z,-3.05
2023-02-11T07:09:37.880Z,-2.92
2023-02-11T07:12:04.804Z,-2.94
2023-02-11T07:14:31.437Z,-2.89
2023-02-11T07:16:58.320Z,-2.88
2023-02-11T07:19:24.958Z,-2.89
2023-02-11T07:21:51.710Z,-2.90
2023-02-11T07:24:18.249Z,-2.88
2023-02-11T07:26:44.946Z,-2.63
2023-02-11T07:29:11.693Z,-2.50
2023-02-11T07:31:38.332Z,-2.25
2023-02-11T07:34:05.025Z,-2.11
2023-02-11T07:36:32.403Z,-1.77
2023-02-11T07:39:00.048Z,-2.06
2023-02-11T07:41:27.409Z,-2.07
2023-02-11T07:43:54.620Z,-2.05
2023-02-11T07:46:24.348Z,-1.90
2023-02-11T07:48:51.535Z,-1.72
2023-02-11T07:51:21.511Z,-1.80
2023-02-11T07:53:48.466Z,-1.59
2023-02-11T07:56:17.559Z,-1.28
2023-02-11T07:58:44.872Z,-1.01
2023-02-11T08:01:14.830Z,-0.84
2023-02-11T08:03:44.953Z,-0.65
2023-02-11T08:06:16.935Z,-0.79
2023-02-11T08:08:43.848Z,-0.59
2023-02-11T08:11:16.782Z,-0.32
2023-02-11T08:13:43.823Z,-0.32
2023-02-11T08:16:19.370Z,-0.03
2023-02-11T08:18:46.530Z,0.15
2023-02-11T08:21:13.311Z,0.27
2023-02-11T08:23:41.569Z,0.05
2023-02-11T08:26:12.391Z,0.33
2023-02-11T08:28:41.031Z,0.61
2023-02-11T08:31:16.635Z,0.83
2023-02-11T08:33:43.826Z,0.95
2023-02-11T08:36:12.644Z,0.93
2023-02-11T08:38:39.304Z,0.99
2023-02-11T08:41:06.574Z,1.21
2023-02-11T08:43:33.452Z,1.28
2023-02-11T08:46:02.211Z,1.36
2023-02-11T08:48:29.806Z,1.44
2023-02-11T08:50:57.354Z,1.46
2023-02-11T08:53:24.514Z,1.57
2023-02-11T08:55:55.531Z,1.63
2023-02-11T08:58:22.803Z,1.66
2023-02-11T09:00:50.396Z,1.75
2023-02-11T09:03:17.640Z,1.86
2023-02-11T09:05:45.798Z,1.84
2023-02-11T09:08:13.734Z,1.85
2023-02-11T09:10:40.748Z,1.94
2023-02-11T09:13:07.888Z,2.10
2023-02-11T09:15:34.785Z,2.09
2023-02-11T09:18:03.440Z,2.47
2023-02-11T09:20:30.228Z,2.56
2023-02-11T09:22:58.623Z,2.62
2023-02-11T09:25:25.763Z,2.63
2023-02-11T09:27:53.764Z,2.88
2023-02-11T09:30:20.995Z,2.92
2023-02-11T09:32:47.867Z,3.09
2023-02-11T09:35:14.692Z,3.26
2023-02-11T09:37:41.491Z,3.59
2023-02-11T09:40:08.722Z,3.83
2023-02-11T09:43:01.730Z,4.14
2023-02-11T09:45:31.172Z,4.44
2023-02-11T09:48:06.462Z,4.45
2023-02-11T09:50:40.539Z,4.66
2023-02-11T09:53:15.551Z,4.48
2023-02-11T09:55:46.679Z,4.78
2023-02-11T09:58:25.681Z,4.62
2023-02-11T10:01:13.854Z,4.48
2023-02-11T10:04:14.578Z,4.47
2023-02-11T10:06:45.525Z,4.67
2023-02-11T10:09:53.976Z,4.68
2023-02-11T10:12:43.105Z,4.67
2023-02-11T10:15:36.368Z,4.51
2023-02-11T10:18:15.877Z,4.74
2023-02-11T10:20:48.953Z,4.64
2023-02-11T10:23:29.424Z,4.96
2023-02-11T10:25:59.050Z,4.97
2023-02-11T10:28:32.764Z,5.22
2023-02-11T10:31:15.808Z,5.39
2023-02-11T10:34:10.323Z,5.47
2023-02-11T10:36:41.162Z,5.21
2023-02-11T10:39:15.435Z,5.50
2023-02-11T10:41:46.952Z,5.71
2023-02-11T10:44:51.651Z,5.93
2023-02-11T10:47:22.688Z,6.37
2023-02-11T10:49:49.935Z,6.88
2023-02-11T10:52:25.496Z,7.22
2023-02-11T10:55:02.594Z,7.00
2023-02-11T10:57:37.043Z,7.21
2023-02-11T11:00:27.340Z,7.13
2023-02-11T11:03:00.253Z,7.09
2023-02-11T11:05:31.737Z,7.53
2023-02-11T11:08:06.878Z,7.90
2023-02-11T11:10:43.353Z,8.26
2023-02-11T11:13:37.731Z,7.97
2023-02-11T11:16:11.855Z,8.12
2023-02-11T11:18:44.398Z,7.47
2023-02-11T11:21:19.333Z,7.49
2023-02-11T11:24:01.065Z,7.34
2023-02-11T11:27:01.965Z,7.12
2023-02-11T11:29:37.382Z,7.14
2023-02-11T11:32:22.356Z,7.09
2023-02-11T11:35:21.785Z,7.09
2023-02-11T11:37:54.470Z,6.81
2023-02-11T11:40:21.933Z,6.95
2023-02-11T11:43:02.735Z,6.89
2023-02-11T11:45:29.904Z,6.94
2023-02-11T11:48:03.114Z,7.10
2023-02-11T11:50:56.181Z,7.14
2023-02-11T11:53:40.844Z,7.07
2023-02-11T11:56:14.392Z,6.95
2023-02-11T11:58:41.298Z,6.90
2023-02-11T12:01:26.508Z,7.11
2023-02-11T12:04:14.244Z,7.18
2023-02-11T12:06:46.927Z,7.08
2023-02-11T12:09:13.455Z,7.22
2023-02-11T12:11:40.139Z,7.63
2023-02-11T12:14:26.550Z,7.69
2023-02-11T12:17:30.379Z,7.58
2023-02-11T12:20:18.235Z,7.41
2023-02-11T12:23:04.034Z,7.55
2023-02-11T12:25:44.030Z,7.66
2023-02-11T12:28:31.831Z,7.45
2023-02-11T12:31:08.540Z,7.77
2023-02-11T12:33:59.726Z,7.99
2023-02-11T12:37:07.820Z,8.11
2023-02-11T12:40:13.602Z,8.02
2023-02-11T12:43:02.631Z,8.13
2023-02-11T12:45:35.139Z,7.95
2023-02-11T12:48:17.058Z,7.87
2023-02-11T12:50:59.189Z,7.73
2023-02-11T12:53:56.841Z,7.90
2023-02-11T12:56:33.324Z,7.86
2023-02-11T12:59:04.752Z,7.80
2023-02-11T13:01:39.944Z,8.07
2023-02-11T13:04:13.894Z,8.09
2023-02-11T13:06:45.163Z,8.00
2023-02-11T13:09:19.100Z,7.85
2023-02-11T13:11:52.087Z,8.06
2023-02-11T13:14:35.471Z,7.85
2023-02-11T13:17:16.163Z,8.06
2023-02-11T13:19:59.333Z,8.06
2023-02-11T13:22:41.442Z,8.08
2023-02-11T13:25:25.535Z,8.20
2023-02-11T13:28:12.242Z,8.29
2023-02-11T13:30:47.107Z,8.24
2023-02-11T13:33:20.303Z,8.25
2023-02-11T13:36:09.601Z,8.57
2023-02-11T13:38:37.596Z,8.58
2023-02-11T13:41:21.389Z,8.72
2023-02-11T13:44:22.294Z,8.62
2023-02-11T13:46:53.921Z,8.59
2023-02-11T13:49:42.439Z,8.78
2023-02-11T13:52:24.694Z,8.63
2023-02-11T13:54:54.725Z,8.68
2023-02-11T13:57:21.381Z,8.74
2023-02-11T13:59:53.194Z,8.81
2023-02-11T14:02:49.154Z,8.79
2023-02-11T14:05:42.831Z,8.77
2023-02-11T14:08:28.019Z,8.64
2023-02-11T14:11:08.452Z,8.77
2023-02-11T14:13:37.065Z,8.71
2023-02-11T14:16:20.423Z,8.76
2023-02-11T14:18:55.121Z,8.70
2023-02-11T14:21:27.902Z,8.55
2023-02-11T14:24:14.499Z,8.59
2023-02-11T14:26:50.291Z,8.60
2023-02-11T14:29:24.544Z,8.63
2023-02-11T14:32:00.554Z,8.63
2023-02-11T14:34:33.319Z,8.70
2023-02-11T14:37:33.408Z,8.85
2023-02-11T14:40:29.401Z,8.97
2023-02-11T14:43:00.689Z,9.00
2023-02-11T14:45:29.049Z,9.07
2023-02-11T14:48:04.293Z,8.88
2023-02-11T14:50:41.865Z,8.72
2023-02-11T14:53:15.561Z,8.73
2023-02-11T14:55:44.792Z,8.83
2023-02-11T14:58:18.863Z,8.67
2023-02-11T15:00:53.864Z,8.73
2023-02-11T15:03:38.694Z,8.95
2023-02-11T15:06:12.753Z,8.97
2023-02-11T15:08:45.933Z,9.07
2023-02-11T15:11:17.404Z,8.97
2023-02-11T15:13:47.663Z,8.77
2023-02-11T15:16:18.673Z,8.96
2023-02-11T15:18:55.192Z,8.76
2023-02-11T15:21:29.903Z,8.59
2023-02-11T15:24:03.736Z,8.69
2023-02-11T15:26:30.506Z,8.75
2023-02-11T15:28:58.131Z,8.67
2023-02-11T15:31:28.956Z,8.53
2023-02-11T15:33:55.706Z,8.53
2023-02-11T15:36:28.814Z,8.46
2023-02-11T15:39:18.962Z,8.35
2023-02-11T15:41:45.713Z,8.35
2023-02-11T15:44:29.248Z,8.02
2023-02-11T15:46:55.900Z,8.09
2023-02-11T15:49:24.543Z,8.22
2023-02-11T15:51:52.896Z,8.37
2023-02-11T15:54:24.029Z,8.44
2023-02-11T15:56:59.588Z,8.42
2023-02-11T15:59:38.993Z,8.40
2023-02-11T16:02:14.308Z,7.95
2023-02-11T16:04:51.237Z,8.11
2023-02-11T16:07:41.069Z,7.99
2023-02-11T16:10:29.995Z,7.46
2023-02-11T16:13:08.570Z,7.24
2023-02-11T16:15:35.196Z,6.98
2023-02-11T16:18:12.689Z,6.57
2023-02-11T16:20:39.643Z,6.16
2023-02-11T16:23:07.909Z,5.86
2023-02-11T16:25:37.942Z,5.40
2023-02-11T16:28:05.371Z,5.06
2023-02-11T16:30:40.651Z,4.86
2023-02-11T16:33:11.021Z,4.68
2023-02-11T16:35:38.289Z,4.56
2023-02-11T16:38:05.058Z,4.79
2023-02-11T16:40:31.863Z,4.54
2023-02-11T16:42:58.549Z,4.24
2023-02-11T16:45:25.335Z,4.10
2023-02-11T16:47:51.947Z,3.94
2023-02-11T16:50:23.821Z,3.74
2023-02-11T16:52:52.489Z,3.60
2023-02-11T16:55:19.177Z,3.53
2023-02-11T16:57:47.522Z,3.33
2023-02-11T17:00:16.571Z,3.35
2023-02-11T17:02:43.953Z,3.05
2023-02-11T17:05:23.047Z,3.03
2023-02-11T17:07:49.902Z,3.51
2023-02-11T17:10:19.991Z,3.25
2023-02-11T17:12:48.254Z,3.03
2023-02-11T17:15:15.423Z,2.97
2023-02-11T17:17:41.996Z,3.18
2023-02-11T17:20:11.833Z,3.05
2023-02-11T17:22:38.513Z,2.92
2023-02-11T17:25:05.308Z,3.19
2023-02-11T17:27:32.118Z,3.45
2023-02-11T17:29:58.794Z,3.46
2023-02-11T17:32:25.574Z,3.06
2023-02-11T17:34:53.566Z,3.14
2023-02-11T17:37:20.360Z,2.87
2023-02-11T17:39:49.236Z,2.75
2023-02-11T17:42:16.090Z,2.58
2023-02-11T17:44:44.374Z,2.76
2023-02-11T17:47:11.711Z,2.48
2023-02-11T17:49:39.259Z,2.74
2023-02-11T17:52:06.052Z,2.95
2023-02-11T17:54:32.704Z,2.73
2023-02-11T17:56:59.352Z,2.68
2023-02-11T17:59:26.516Z,2.81
2023-02-11T18:01:53.183Z,2.50
2023-02-11T18:04:20.034Z,2.59
2023-02-11T18:06:46.798Z,2.50
2023-02-11T18:09:13.816Z,2.49
2023-02-11T18:11:40.966Z,2.28
2023-02-11T18:14:08.506Z,2.36
2023-02-11T18:16:36.572Z,2.28
2023-02-11T18:19:03.592Z,2.28
2023-02-11T18:21:30.444Z,2.07
2023-02-11T18:23:57.307Z,2.03
2023-02-11T18:26:28.146Z,1.92
2023-02-11T18:28:57.972Z,1.93
2023-02-11T18:31:26.431Z,1.78
2023-02-11T18:33:53.810Z,1.93
2023-02-11T18:36:21.312Z,1.98
2023-02-11T18:38:48.296Z,1.90
2023-02-11T18:41:15.109Z,1.79
2023-02-11T18:43:43.060Z,1.74
2023-02-11T18:46:12.569Z,1.72
2023-02-11T18:48:39.495Z,1.59
2023-02-11T18:51:11.942Z,1.38
2023-02-11T18:53:38.724Z,1.37
2023-02-11T18:56:14.231Z,1.44
2023-02-11T18:58:40.838Z,1.45
2023-02-11T19:01:27.993Z,1.43
2023-02-11T19:03:57.393Z,1.43
2023-02-11T19:06:27.296Z,1.39
2023-02-11T19:08:59.024Z,1.21
2023-02-11T19:11:45.232Z,1.15
2023-02-11T19:14:12.101Z,1.16
2023-02-11T19:16:43.470Z,1.19
2023-02-11T19:19:10.492Z,1.22
2023-02-11T19:21:37.160Z,1.33
2023-02-11T19:24:08.351Z,1.25
2023-02-11T19:26:35.724Z,1.30
2023-02-11T19:29:02.565Z,1.29
2023-02-11T19:31:32.167Z,1.56
2023-02-11T19:33:59.777Z,1.34
2023-02-11T19:36:26.694Z,1.33
2023-02-11T19:38:53.643Z,1.29
2023-02-11T19:41:22.494Z,1.10
2023-02-11T19:43:53.617Z,1.19
2023-02-11T19:46:21.457Z,1.17
2023-02-11T19:48:49.052Z,1.20
2023-02-11T19:51:16.792Z,1.30
2023-02-11T19:53:44.703Z,1.13
2023-02-11T19:56:12.820Z,1.09
2023-02-11T19:58:41.160Z,1.16
2023-02-11T20:01:10.068Z,1.18
2023-02-11T20:03:37.175Z,1.00
2023-02-11T20:06:15.291Z,0.93
2023-02-11T20:08:41.854Z,0.77
2023-02-11T20:11:10.510Z,0.78
2023-02-11T20:13:38.614Z,0.92
2023-02-11T20:16:10.710Z,0.75
2023-02-11T20:18:37.322Z,0.74
2023-02-11T20:21:09.167Z,0.69
2023-02-11T20:23:36.408Z,0.64
2023-02-11T20:26:07.348Z,0.62
2023-02-11T20:28:34.185Z,0.72
2023-02-11T20:31:01.066Z,0.70
2023-02-11T20:33:29.862Z,0.81
2023-02-11T20:36:01.902Z,0.78
2023-02-11T20:38:28.596Z,0.95
2023-02-11T20:40:55.811Z,0.81
2023-02-11T20:43:23.101Z,0.75
2023-02-11T20:45:50.112Z,0.71
2023-02-11T20:48:16.830Z,0.66
2023-02-11T20:50:44.252Z,0.63
2023-02-11T20:53:12.016Z,0.46
2023-02-11T20:55:39.468Z,0.53
2023-02-11T20:58:07.349Z,0.44
2023-02-11T21:00:36.922Z,0.63
2023-02-11T21:03:04.671Z,0.56
2023-02-11T21:05:31.482Z,0.62
2023-02-11T21:07:58.138Z,0.66
2023-02-11T21:10:24.836Z,0.49
2023-02-11T21:12:51.411Z,0.49
2023-02-11T21:15:18.010Z,0.79
2023-02-11T21:17:44.648Z,0.47
2023-02-11T21:20:11.768Z,0.31
2023-02-11T21:22:38.364Z,0.31
2023-02-11T21:25:06.168Z,0.35
2023-02-11T21:27:33.838Z,0.32
2023-02-11T21:30:01.383Z,0.24
2023-02-11T21:32:27.980Z,0.23
2023-02-11T21:34:54.887Z,0.28
2023-02-11T21:37:23.184Z,0.23
2023-02-11T21:39:50.015Z,0.15
2023-02-11T21:42:16.734Z,0.22
2023-02-11T21:44:43.409Z,0.22
2023-02-11T21:47:10.044Z,0.23
2023-02-11T21:49:36.863Z,0.26
2023-02-11T21:52:03.553Z,0.32
2023-02-11T21:54:32.086Z,0.28
2023-02-11T21:57:00.000Z,0.23
2023-02-11T21:59:26.553Z,0.13
2023-02-11T22:01:53.080Z,0.24
2023-02-11T22:04:19.892Z,0.24
2023-02-11T22:06:46.531Z,0.36
2023-02-11T22:09:13.349Z,0.42
2023-02-11T22:11:39.957Z,0.31
2023-02-11T22:14:07.124Z,0.35
2023-02-11T22:16:33.931Z,0.23
2023-02-11T22:19:02.507Z,0.34
2023-02-11T22:21:30.076Z,0.33
2023-02-11T22:23:56.770Z,0.19
2023-02-11T22:26:25.366Z,0.25
2023-02-11T22:28:53.603Z,0.20
2023-02-11T22:31:26.370Z,0.30
2023-02-11T22:33:53.096Z,0.17
2023-02-11T22:36:25.410Z,0.14
2023-02-11T22:38:52.694Z,0.21
2023-02-11T22:41:20.505Z,-0.02
2023-02-11T22:43:47.528Z,-0.07
2023-02-11T22:46:16.655Z,-0.22
2023-02-11T22:48:43.776Z,-0.11
2023-02-11T22:51:13.084Z,-0.11
2023-02-11T22:53:40.444Z,-0.06
2023-02-11T22:56:09.936Z,-0.19
2023-02-11T22:58:36.617Z,-0.17
2023-02-11T23:01:04.633Z,-0.11
2023-02-11T23:03:31.485Z,-0.16
2023-02-11T23:05:59.258Z,-0.18
2023-02-11T23:08:27.239Z,-0.24
2023-02-11T23:10:53.940Z,-0.20
2023-02-11T23:13:20.718Z,-0.19
2023-02-11T23:15:47.942Z,-0.09
2023-02-11T23:18:15.325Z,-0.29
2023-02-11T23:20:43.632Z,-0.09
2023-02-11T23:23:10.401Z,0.08
2023-02-11T23:25:43.299Z,0.32
2023-02-11T23:28:11.907Z,0.26
2023-02-11T23:30:38.823Z,0.10
2023-02-11T23:33:05.400Z,-0.07
2023-02-11T23:35:32.970Z,-0.26
2023-02-11T23:37:59.502Z,-0.32
2023-02-11T23:40:26.082Z,-0.25
2023-02-11T23:42:52.877Z,-0.24
2023-02-11T23:45:19.465Z,-0.28
2023-02-11T23:47:47.681Z,-0.32
2023-02-11T23:50:14.522Z,-0.26
2023-02-11T23:52:41.524Z,-0.23
2023-02-11T23:55:09.021Z,-0.23
2023-02-11T23:57:36.367Z,-0.40
